createdAt,value
2018-03-27T00:00:20.950Z,6.66
2018-03-27T00:01:20.870Z,6.63
2018-03-27T00:02:20.789Z,6.62
2018-03-27T00:03:20.711Z,6.62
2018-03-27T00:04:20.624Z,6.62
2018-03-27T00:05:20.576Z,6.59
2018-03-27T00:06:20.461Z,6.51
2018-03-27T00:07:20.379Z,6.45
2018-03-27T00:08:20.312Z,6.56
2018-03-27T00:09:20.246Z,6.49
2018-03-27T00:10:20.134Z,6.48
2018-03-27T00:11:20.054Z,6.49
2018-03-27T00:12:19.972Z,6.46
2018-03-27T00:13:19.891Z,6.42
2018-03-27T00:14:19.809Z,6.45
2018-03-27T00:15:19.726Z,6.41
2018-03-27T00:16:19.651Z,6.48
2018-03-27T00:17:19.567Z,6.51
2018-03-27T00:18:19.483Z,6.36
2018-03-27T00:19:19.397Z,6.48
2018-03-27T00:20:19.320Z,6.46
2018-03-27T00:21:19.243Z,6.42
2018-03-27T00:22:19.156Z,6.54
2018-03-27T00:23:19.073Z,6.46
2018-03-27T00:24:18.994Z,6.35
2018-03-27T00:25:18.909Z,6.28
2018-03-27T00:26:18.829Z,6.31
2018-03-27T00:27:18.744Z,6.30
2018-03-27T00:28:18.674Z,6.38
2018-03-27T00:29:18.646Z,6.38
2018-03-27T00:30:18.500Z,6.33
2018-03-27T00:31:18.424Z,6.38
2018-03-27T00:32:18.338Z,6.30
2018-03-27T00:33:18.256Z,6.44
2018-03-27T00:34:18.172Z,6.36
2018-03-27T00:35:18.093Z,6.39
2018-03-27T00:36:18.010Z,6.35
2018-03-27T00:37:17.928Z,6.35
2018-03-27T00:38:17.848Z,6.35
2018-03-27T00:39:17.764Z,6.39
2018-03-27T00:40:17.683Z,6.39
2018-03-27T00:41:17.600Z,6.44
2018-03-27T00:42:17.541Z,6.44
2018-03-27T00:43:17.448Z,6.35
2018-03-27T00:44:17.357Z,6.33
2018-03-27T00:45:17.275Z,6.41
2018-03-27T00:46:17.192Z,6.35
2018-03-27T00:47:17.108Z,6.39
2018-03-27T00:48:17.030Z,6.38
2018-03-27T00:49:16.946Z,6.31
2018-03-27T00:50:16.864Z,6.28
2018-03-27T00:51:16.786Z,6.27
2018-03-27T00:52:16.698Z,6.28
2018-03-27T00:53:16.624Z,6.22
2018-03-27T00:54:16.536Z,6.24
2018-03-27T00:55:16.454Z,6.22
2018-03-27T00:56:16.475Z,6.31
2018-03-27T00:57:16.292Z,6.20
2018-03-27T00:58:16.221Z,6.31
2018-03-27T00:59:16.130Z,6.33
2018-03-27T01:00:16.047Z,6.26
2018-03-27T01:01:15.989Z,6.31
2018-03-27T01:02:15.884Z,6.30
2018-03-27T01:03:15.801Z,6.22
2018-03-27T01:04:15.719Z,6.24
2018-03-27T01:05:15.639Z,6.31
2018-03-27T01:06:15.564Z,6.30
2018-03-27T01:07:15.483Z,6.22
2018-03-27T01:08:15.395Z,6.24
2018-03-27T01:09:15.317Z,6.22
2018-03-27T01:10:15.229Z,6.12
2018-03-27T01:11:15.147Z,6.12
2018-03-27T01:12:15.063Z,6.17
2018-03-27T01:13:14.986Z,6.09
2018-03-27T01:14:14.900Z,6.11
2018-03-27T01:15:14.821Z,6.11
2018-03-27T01:16:14.738Z,6.16
2018-03-27T01:17:14.685Z,6.04
2018-03-27T01:18:14.577Z,6.09
2018-03-27T01:19:14.491Z,6.12
2018-03-27T01:20:14.410Z,6.19
2018-03-27T01:21:14.330Z,6.12
2018-03-27T01:22:14.246Z,6.08
2018-03-27T01:23:14.161Z,6.24
2018-03-27T01:24:14.080Z,6.12
2018-03-27T01:25:13.999Z,6.26
2018-03-27T01:26:13.920Z,6.30
2018-03-27T01:27:13.835Z,6.19
2018-03-27T01:28:13.758Z,6.19
2018-03-27T01:29:13.671Z,6.19
2018-03-27T01:30:13.597Z,6.24
2018-03-27T01:31:13.541Z,6.17
2018-03-27T01:32:13.426Z,6.26
2018-03-27T01:33:13.357Z,6.27
2018-03-27T01:34:13.264Z,6.38
2018-03-27T01:35:13.186Z,6.35
2018-03-27T01:36:13.099Z,6.35
2018-03-27T01:37:13.018Z,6.33
2018-03-27T01:38:12.978Z,6.33
2018-03-27T01:39:12.857Z,6.35
2018-03-27T01:40:12.984Z,6.39
2018-03-27T01:41:12.690Z,6.33
2018-03-27T01:42:12.612Z,6.36
2018-03-27T01:43:12.529Z,6.44
2018-03-27T01:44:12.442Z,6.44
2018-03-27T01:45:12.365Z,6.39
2018-03-27T01:46:12.282Z,6.36
2018-03-27T01:47:12.198Z,6.33
2018-03-27T01:48:12.118Z,6.36
2018-03-27T01:49:12.035Z,6.35
2018-03-27T01:50:11.953Z,6.28
2018-03-27T01:51:11.870Z,6.31
2018-03-27T01:52:11.790Z,6.36
2018-03-27T01:53:11.709Z,6.31
2018-03-27T01:54:11.626Z,6.38
2018-03-27T01:55:11.543Z,6.35
2018-03-27T01:56:11.464Z,6.24
2018-03-27T01:57:11.379Z,6.26
2018-03-27T01:58:11.297Z,6.20
2018-03-27T01:59:11.217Z,6.24
2018-03-27T02:00:11.134Z,6.16
2018-03-27T02:01:11.053Z,6.26
2018-03-27T02:02:10.968Z,6.19
2018-03-27T02:03:10.889Z,6.30
2018-03-27T02:04:10.807Z,6.22
2018-03-27T02:05:10.755Z,6.20
2018-03-27T02:06:10.643Z,6.24
2018-03-27T02:07:10.561Z,6.22
2018-03-27T02:08:10.479Z,6.24
2018-03-27T02:09:10.396Z,6.19
2018-03-27T02:10:10.315Z,6.20
2018-03-27T02:11:10.238Z,6.24
2018-03-27T02:12:10.153Z,6.09
2018-03-27T02:13:10.076Z,6.11
2018-03-27T02:14:09.989Z,6.02
2018-03-27T02:15:09.905Z,6.05
2018-03-27T02:16:09.828Z,6.08
2018-03-27T02:17:09.741Z,6.08
2018-03-27T02:18:09.658Z,6.07
2018-03-27T02:19:09.576Z,6.09
2018-03-27T02:20:09.505Z,5.93
2018-03-27T02:21:09.425Z,6.09
2018-03-27T02:22:09.330Z,6.14
2018-03-27T02:23:09.249Z,6.09
2018-03-27T02:24:09.168Z,6.04
2018-03-27T02:25:09.100Z,5.94
2018-03-27T02:26:09.002Z,5.93
2018-03-27T02:27:08.969Z,6.01
2018-03-27T02:28:08.841Z,5.94
2018-03-27T02:29:08.760Z,5.97
2018-03-27T02:30:08.676Z,6.01
2018-03-27T02:31:08.593Z,5.97
2018-03-27T02:32:08.512Z,5.94
2018-03-27T02:33:08.430Z,5.91
2018-03-27T02:34:08.350Z,5.98
2018-03-27T02:35:08.264Z,5.94
2018-03-27T02:36:08.183Z,5.90
2018-03-27T02:37:08.102Z,5.94
2018-03-27T02:38:08.019Z,5.94
2018-03-27T02:39:07.933Z,5.91
2018-03-27T02:40:07.874Z,5.93
2018-03-27T02:41:07.782Z,5.94
2018-03-27T02:42:07.690Z,6.08
2018-03-27T02:43:07.612Z,6.05
2018-03-27T02:44:07.536Z,6.04
2018-03-27T02:45:07.443Z,5.93
2018-03-27T02:46:07.397Z,5.98
2018-03-27T02:47:07.280Z,5.97
2018-03-27T02:48:07.196Z,5.98
2018-03-27T02:49:07.119Z,6.01
2018-03-27T02:50:07.050Z,5.91
2018-03-27T02:51:06.956Z,5.93
2018-03-27T02:52:06.866Z,5.94
2018-03-27T02:53:06.790Z,5.98
2018-03-27T02:54:06.712Z,5.97
2018-03-27T02:55:06.622Z,6.01
2018-03-27T02:56:06.541Z,6.01
2018-03-27T02:57:06.456Z,5.97
2018-03-27T02:58:06.376Z,5.90
2018-03-27T02:59:06.293Z,5.94
2018-03-27T03:00:06.208Z,5.84
2018-03-27T03:01:06.130Z,5.86
2018-03-27T03:02:06.043Z,5.84
2018-03-27T03:03:05.965Z,5.84
2018-03-27T03:04:05.890Z,5.87
2018-03-27T03:05:05.831Z,5.86
2018-03-27T03:06:05.717Z,5.87
2018-03-27T03:07:05.634Z,5.87
2018-03-27T03:08:05.553Z,5.90
2018-03-27T03:09:05.468Z,5.84
2018-03-27T03:10:05.387Z,5.72
2018-03-27T03:11:05.307Z,5.73
2018-03-27T03:12:05.225Z,5.76
2018-03-27T03:13:05.169Z,5.73
2018-03-27T03:14:05.062Z,5.73
2018-03-27T03:15:04.975Z,5.80
2018-03-27T03:16:04.894Z,5.72
2018-03-27T03:17:04.812Z,5.75
2018-03-27T03:18:04.731Z,5.73
2018-03-27T03:19:04.684Z,5.83
2018-03-27T03:20:04.563Z,5.79
2018-03-27T03:21:04.481Z,5.75
2018-03-27T03:22:04.400Z,5.82
2018-03-27T03:23:04.314Z,5.82
2018-03-27T03:24:04.330Z,5.71
2018-03-27T03:25:04.155Z,5.79
2018-03-27T03:26:04.076Z,5.75
2018-03-27T03:27:03.993Z,5.83
2018-03-27T03:28:03.907Z,5.82
2018-03-27T03:29:03.839Z,5.82
2018-03-27T03:30:03.743Z,5.86
2018-03-27T03:31:03.660Z,5.82
2018-03-27T03:32:03.574Z,5.73
2018-03-27T03:33:03.493Z,5.76
2018-03-27T03:34:03.410Z,5.75
2018-03-27T03:35:03.333Z,5.72
2018-03-27T03:36:03.255Z,5.73
2018-03-27T03:37:03.165Z,5.75
2018-03-27T03:38:03.082Z,5.76
2018-03-27T03:39:03.004Z,5.86
2018-03-27T03:40:02.918Z,5.89
2018-03-27T03:41:02.835Z,5.83
2018-03-27T03:42:02.754Z,5.87
2018-03-27T03:43:02.767Z,5.89
2018-03-27T03:44:02.585Z,5.89
2018-03-27T03:45:02.507Z,5.84
2018-03-27T03:46:02.423Z,5.86
2018-03-27T03:47:02.339Z,5.87
2018-03-27T03:48:02.264Z,5.80
2018-03-27T03:49:02.179Z,5.80
2018-03-27T03:50:02.094Z,5.80
2018-03-27T03:51:02.018Z,5.69
2018-03-27T03:52:01.934Z,5.80
2018-03-27T03:53:01.877Z,5.75
2018-03-27T03:54:01.765Z,5.82
2018-03-27T03:55:01.688Z,5.86
2018-03-27T03:56:01.605Z,5.87
2018-03-27T03:57:01.521Z,5.86
2018-03-27T03:58:01.433Z,5.87
2018-03-27T03:59:01.354Z,5.84
2018-03-27T04:00:01.273Z,5.87
2018-03-27T04:01:01.188Z,5.86
2018-03-27T04:02:01.104Z,5.84
2018-03-27T04:03:01.024Z,5.89
2018-03-27T04:04:00.949Z,5.84
2018-03-27T04:05:00.873Z,5.87
2018-03-27T04:06:00.774Z,5.87
2018-03-27T04:07:00.693Z,5.82
2018-03-27T04:08:00.611Z,5.84
2018-03-27T04:09:00.531Z,5.80
2018-03-27T04:10:00.445Z,5.80
2018-03-27T04:11:00.364Z,5.79
2018-03-27T04:12:00.292Z,5.79
2018-03-27T04:13:00.206Z,5.82
2018-03-27T04:14:00.145Z,5.73
2018-03-27T04:15:00.035Z,5.71
2018-03-27T04:15:59.957Z,5.75
2018-03-27T04:16:59.872Z,5.66
2018-03-27T04:17:59.789Z,5.71
2018-03-27T04:18:59.704Z,5.69
2018-03-27T04:19:59.628Z,5.71
2018-03-27T04:20:59.593Z,5.68
2018-03-27T04:21:59.458Z,5.75
2018-03-27T04:22:59.379Z,5.76
2018-03-27T04:23:59.295Z,5.75
2018-03-27T04:24:59.218Z,5.73
2018-03-27T04:25:59.130Z,5.73
2018-03-27T04:26:59.055Z,5.87
2018-03-27T04:27:58.970Z,5.80
2018-03-27T04:28:58.884Z,5.80
2018-03-27T04:29:58.803Z,5.82
2018-03-27T04:30:58.716Z,5.83
2018-03-27T04:31:58.637Z,5.94
2018-03-27T04:32:58.555Z,5.93
2018-03-27T04:33:58.472Z,5.90
2018-03-27T04:34:58.392Z,5.94
2018-03-27T04:35:58.306Z,5.91
2018-03-27T04:36:58.225Z,5.90
2018-03-27T04:37:58.145Z,5.99
2018-03-27T04:38:58.062Z,5.94
2018-03-27T04:39:57.982Z,5.93
2018-03-27T04:40:57.896Z,6.01
2018-03-27T04:41:57.814Z,6.07
2018-03-27T04:42:57.733Z,5.99
2018-03-27T04:43:57.653Z,6.07
2018-03-27T04:44:57.571Z,5.98
2018-03-27T04:45:57.486Z,6.09
2018-03-27T04:46:57.408Z,5.99
2018-03-27T04:47:57.376Z,6.09
2018-03-27T04:48:57.241Z,6.12
2018-03-27T04:49:57.158Z,5.98
2018-03-27T04:50:57.097Z,5.98
2018-03-27T04:51:56.994Z,5.98
2018-03-27T04:52:56.912Z,5.89
2018-03-27T04:53:56.827Z,5.94
2018-03-27T04:54:56.746Z,5.98
2018-03-27T04:55:56.663Z,5.91
2018-03-27T04:56:56.588Z,5.84
2018-03-27T04:57:56.498Z,5.87
2018-03-27T04:58:56.424Z,5.89
2018-03-27T04:59:56.340Z,5.87
2018-03-27T05:00:56.254Z,5.84
2018-03-27T05:01:56.173Z,5.84
2018-03-27T05:02:56.090Z,5.75
2018-03-27T05:03:56.005Z,5.68
2018-03-27T05:04:55.925Z,5.65
2018-03-27T05:05:55.849Z,5.69
2018-03-27T05:06:55.759Z,5.65
2018-03-27T05:07:55.677Z,5.65
2018-03-27T05:08:55.595Z,5.76
2018-03-27T05:09:55.514Z,5.75
2018-03-27T05:10:55.430Z,5.76
2018-03-27T05:11:55.348Z,5.76
2018-03-27T05:12:55.269Z,5.80
2018-03-27T05:13:55.185Z,5.79
2018-03-27T05:14:55.112Z,5.84
2018-03-27T05:15:55.019Z,5.86
2018-03-27T05:16:54.938Z,5.87
2018-03-27T05:17:54.859Z,5.91
2018-03-27T05:18:54.770Z,5.94
2018-03-27T05:19:54.694Z,5.79
2018-03-27T05:20:54.607Z,5.90
2018-03-27T05:21:54.526Z,5.84
2018-03-27T05:22:54.444Z,5.86
2018-03-27T05:23:54.363Z,5.82
2018-03-27T05:24:54.292Z,5.76
2018-03-27T05:25:54.214Z,5.65
2018-03-27T05:26:54.114Z,5.56
2018-03-27T05:27:54.031Z,5.59
2018-03-27T05:28:54.040Z,5.54
2018-03-27T05:29:53.866Z,5.54
2018-03-27T05:30:53.786Z,5.53
2018-03-27T05:31:53.970Z,5.48
2018-03-27T05:32:53.642Z,5.56
2018-03-27T05:33:53.537Z,5.50
2018-03-27T05:34:53.457Z,5.53
2018-03-27T05:35:53.376Z,5.41
2018-03-27T05:36:53.366Z,5.39
2018-03-27T05:37:53.209Z,5.39
2018-03-27T05:38:53.128Z,5.51
2018-03-27T05:39:53.046Z,5.39
2018-03-27T05:40:52.962Z,5.38
2018-03-27T05:41:52.878Z,5.35
2018-03-27T05:42:52.797Z,5.32
2018-03-27T05:43:52.714Z,5.32
2018-03-27T05:44:52.635Z,5.41
2018-03-27T05:45:52.548Z,5.36
2018-03-27T05:46:52.464Z,5.38
2018-03-27T05:47:52.383Z,5.36
2018-03-27T05:48:52.302Z,5.35
2018-03-27T05:49:52.220Z,5.47
2018-03-27T05:50:52.136Z,5.39
2018-03-27T05:51:52.078Z,5.36
2018-03-27T05:52:51.971Z,5.36
2018-03-27T05:53:51.886Z,5.33
2018-03-27T05:54:51.804Z,5.41
2018-03-27T05:55:51.779Z,5.39
2018-03-27T05:56:51.639Z,5.43
2018-03-27T05:57:51.559Z,5.46
2018-03-27T05:58:51.473Z,5.53
2018-03-27T05:59:51.390Z,5.47
2018-03-27T06:00:51.325Z,5.59
2018-03-27T06:01:51.224Z,5.50
2018-03-27T06:02:51.145Z,5.54
2018-03-27T06:03:51.062Z,5.56
2018-03-27T06:04:50.977Z,5.51
2018-03-27T06:05:50.898Z,5.59
2018-03-27T06:06:50.817Z,5.53
2018-03-27T06:07:50.736Z,5.57
2018-03-27T06:08:50.653Z,5.54
2018-03-27T06:09:50.565Z,5.56
2018-03-27T06:10:50.481Z,5.56
2018-03-27T06:11:50.402Z,5.59
2018-03-27T06:12:50.326Z,5.51
2018-03-27T06:13:50.303Z,5.65
2018-03-27T06:14:50.158Z,5.68
2018-03-27T06:15:50.069Z,5.66
2018-03-27T06:16:49.989Z,5.66
2018-03-27T06:17:49.905Z,5.75
2018-03-27T06:18:49.823Z,5.76
2018-03-27T06:19:49.740Z,5.75
2018-03-27T06:20:49.670Z,5.79
2018-03-27T06:21:49.578Z,5.69
2018-03-27T06:22:49.524Z,5.76
2018-03-27T06:23:49.411Z,5.75
2018-03-27T06:24:49.329Z,5.68
2018-03-27T06:25:49.262Z,5.80
2018-03-27T06:26:49.166Z,5.76
2018-03-27T06:27:49.082Z,5.79
2018-03-27T06:28:49.013Z,5.75
2018-03-27T06:29:48.915Z,5.80
2018-03-27T06:30:48.836Z,5.76
2018-03-27T06:31:48.753Z,5.76
2018-03-27T06:32:48.672Z,5.82
2018-03-27T06:33:48.630Z,5.80
2018-03-27T06:34:48.509Z,5.86
2018-03-27T06:35:48.432Z,5.86
2018-03-27T06:36:48.340Z,5.90
2018-03-27T06:37:48.262Z,5.93
2018-03-27T06:38:48.176Z,5.99
2018-03-27T06:39:48.097Z,5.91
2018-03-27T06:40:48.014Z,6.08
2018-03-27T06:41:47.932Z,6.01
2018-03-27T06:42:47.855Z,6.12
2018-03-27T06:43:47.764Z,6.05
2018-03-27T06:44:47.682Z,6.01
2018-03-27T06:45:47.603Z,6.09
2018-03-27T06:46:47.574Z,6.09
2018-03-27T06:47:47.448Z,6.08
2018-03-27T06:48:47.356Z,6.05
2018-03-27T06:49:47.276Z,6.09
2018-03-27T06:50:47.191Z,5.93
2018-03-27T06:51:47.109Z,5.90
2018-03-27T06:52:47.057Z,5.86
2018-03-27T06:53:46.947Z,5.83
2018-03-27T06:54:46.868Z,5.82
2018-03-27T06:55:46.781Z,5.75
2018-03-27T06:56:46.698Z,5.83
2018-03-27T06:57:46.614Z,5.87
2018-03-27T06:58:46.536Z,5.91
2018-03-27T06:59:46.453Z,6.01
2018-03-27T07:00:46.370Z,5.94
2018-03-27T07:01:46.289Z,5.99
2018-03-27T07:02:46.206Z,6.09
2018-03-27T07:03:46.136Z,6.08
2018-03-27T07:04:46.044Z,6.04
2018-03-27T07:05:45.967Z,5.94
2018-03-27T07:06:45.897Z,5.91
2018-03-27T07:07:45.817Z,5.75
2018-03-27T07:08:45.719Z,5.80
2018-03-27T07:09:45.650Z,5.76
2018-03-27T07:10:45.601Z,5.75
2018-03-27T07:11:45.465Z,5.79
2018-03-27T07:12:45.394Z,5.76
2018-03-27T07:13:45.337Z,5.66
2018-03-27T07:14:45.222Z,5.59
2018-03-27T07:15:45.152Z,5.64
2018-03-27T07:16:45.057Z,5.64
2018-03-27T07:17:45.003Z,5.65
2018-03-27T07:18:44.893Z,5.65
2018-03-27T07:19:44.836Z,5.61
2018-03-27T07:20:44.762Z,5.59
2018-03-27T07:21:44.643Z,5.56
2018-03-27T07:22:44.574Z,5.54
2018-03-27T07:23:44.487Z,5.41
2018-03-27T07:24:44.398Z,5.38
2018-03-27T07:25:44.315Z,5.35
2018-03-27T07:26:44.233Z,5.41
2018-03-27T07:27:44.150Z,5.36
2018-03-27T07:28:44.068Z,5.32
2018-03-27T07:29:43.986Z,5.35
2018-03-27T07:30:43.904Z,5.44
2018-03-27T07:31:43.822Z,5.38
2018-03-27T07:32:43.768Z,5.38
2018-03-27T07:33:43.655Z,5.43
2018-03-27T07:34:43.574Z,5.39
2018-03-27T07:35:43.490Z,5.43
2018-03-27T07:36:43.410Z,5.54
2018-03-27T07:37:43.321Z,5.48
2018-03-27T07:38:43.246Z,5.53
2018-03-27T07:39:43.184Z,5.54
2018-03-27T07:40:43.079Z,5.54
2018-03-27T07:41:42.991Z,5.59
2018-03-27T07:42:42.916Z,5.57
2018-03-27T07:43:42.829Z,5.57
2018-03-27T07:44:42.804Z,5.44
2018-03-27T07:45:42.677Z,5.44
2018-03-27T07:46:42.584Z,5.44
2018-03-27T07:47:42.498Z,5.54
2018-03-27T07:48:42.441Z,5.48
2018-03-27T07:49:42.331Z,5.59
2018-03-27T07:50:42.251Z,5.54
2018-03-27T07:51:42.167Z,5.54
2018-03-27T07:52:42.091Z,5.53
2018-03-27T07:53:42.030Z,5.47
2018-03-27T07:54:41.922Z,5.44
2018-03-27T07:55:41.837Z,5.44
2018-03-27T07:56:41.755Z,5.43
2018-03-27T07:57:42.445Z,5.38
2018-03-27T07:58:41.590Z,5.41
2018-03-27T07:59:41.508Z,5.38
2018-03-27T08:00:41.425Z,5.44
2018-03-27T08:01:41.340Z,5.43
2018-03-27T08:02:41.264Z,5.38
2018-03-27T08:03:41.196Z,5.41
2018-03-27T08:04:41.096Z,5.47
2018-03-27T08:05:41.014Z,5.54
2018-03-27T08:06:40.930Z,5.50
2018-03-27T08:07:40.847Z,5.59
2018-03-27T08:08:40.766Z,5.51
2018-03-27T08:09:40.680Z,5.59
2018-03-27T08:10:40.599Z,5.59
2018-03-27T08:11:40.516Z,5.68
2018-03-27T08:12:40.436Z,5.76
2018-03-27T08:13:40.353Z,5.73
2018-03-27T08:14:40.268Z,5.86
2018-03-27T08:15:40.186Z,5.79
2018-03-27T08:16:40.105Z,6.01
2018-03-27T08:17:40.021Z,5.97
2018-03-27T08:18:39.940Z,6.11
2018-03-27T08:19:39.854Z,6.12
2018-03-27T08:20:39.772Z,6.22
2018-03-27T08:21:39.691Z,6.27
2018-03-27T08:22:39.609Z,6.22
2018-03-27T08:23:39.549Z,6.30
2018-03-27T08:24:39.443Z,6.20
2018-03-27T08:25:39.361Z,6.24
2018-03-27T08:26:39.282Z,6.27
2018-03-27T08:27:39.198Z,6.22
2018-03-27T08:28:39.132Z,6.30
2018-03-27T08:29:39.070Z,6.33
2018-03-27T08:30:38.953Z,6.35
2018-03-27T08:31:38.883Z,6.46
2018-03-27T08:32:38.786Z,6.48
2018-03-27T08:33:38.706Z,6.42
2018-03-27T08:34:40.991Z,6.56
2018-03-27T08:35:38.576Z,6.64
2018-03-27T08:36:38.460Z,6.56
2018-03-27T08:37:38.377Z,6.74
2018-03-27T08:38:38.298Z,6.69
2018-03-27T08:39:38.214Z,6.66
2018-03-27T08:40:38.134Z,6.78
2018-03-27T08:41:38.052Z,6.77
2018-03-27T08:42:37.969Z,6.78
2018-03-27T08:43:37.899Z,6.81
2018-03-27T08:44:37.885Z,6.82
2018-03-27T08:45:37.723Z,6.84
2018-03-27T08:46:37.645Z,6.95
2018-03-27T08:47:37.605Z,7.00
2018-03-27T08:48:37.502Z,6.96
2018-03-27T08:49:37.398Z,7.00
2018-03-27T08:50:37.316Z,6.96
2018-03-27T08:51:37.235Z,7.05
2018-03-27T08:52:37.158Z,7.03
2018-03-27T08:53:37.082Z,7.05
2018-03-27T08:54:36.993Z,7.18
2018-03-27T08:55:36.920Z,7.21
2018-03-27T08:56:36.828Z,7.20
2018-03-27T08:57:36.749Z,7.21
2018-03-27T08:58:36.668Z,7.28
2018-03-27T08:59:36.586Z,7.32
2018-03-27T09:00:36.538Z,7.32
2018-03-27T09:01:36.421Z,7.35
2018-03-27T09:02:36.341Z,7.29
2018-03-27T09:03:36.322Z,7.31
2018-03-27T09:04:36.179Z,7.29
2018-03-27T09:05:36.106Z,7.39
2018-03-27T09:06:36.017Z,7.36
2018-03-27T09:07:35.935Z,7.39
2018-03-27T09:08:35.853Z,7.38
2018-03-27T09:09:35.772Z,7.35
2018-03-27T09:10:35.696Z,7.38
2018-03-27T09:11:35.610Z,7.42
2018-03-27T09:12:35.533Z,7.42
2018-03-27T09:13:35.462Z,7.50
2018-03-27T09:14:35.368Z,7.48
2018-03-27T09:15:35.289Z,7.39
2018-03-27T09:16:35.205Z,7.43
2018-03-27T09:17:35.123Z,7.39
2018-03-27T09:18:35.043Z,7.39
2018-03-27T09:19:34.964Z,7.38
2018-03-27T09:20:34.960Z,7.35
2018-03-27T09:21:34.800Z,7.39
2018-03-27T09:22:34.721Z,7.39
2018-03-27T09:23:34.641Z,7.39
2018-03-27T09:24:34.565Z,7.35
2018-03-27T09:25:34.479Z,7.45
2018-03-27T09:26:34.399Z,7.50
2018-03-27T09:27:34.321Z,7.47
2018-03-27T09:28:34.283Z,7.50
2018-03-27T09:29:34.157Z,7.50
2018-03-27T09:30:34.107Z,7.48
2018-03-27T09:31:34.006Z,7.54
2018-03-27T09:32:33.916Z,7.53
2018-03-27T09:33:33.831Z,7.53
2018-03-27T09:34:33.756Z,7.56
2018-03-27T09:35:33.675Z,7.54
2018-03-27T09:36:33.591Z,7.61
2018-03-27T09:37:33.511Z,7.54
2018-03-27T09:38:33.433Z,7.66
2018-03-27T09:39:33.349Z,7.60
2018-03-27T09:40:33.269Z,7.63
2018-03-27T09:41:33.188Z,7.77
2018-03-27T09:42:33.109Z,7.70
2018-03-27T09:43:33.029Z,7.72
2018-03-27T09:44:32.953Z,7.63
2018-03-27T09:45:32.927Z,7.73
2018-03-27T09:46:32.787Z,7.75
2018-03-27T09:47:32.706Z,7.69
2018-03-27T09:48:32.626Z,7.83
2018-03-27T09:49:32.545Z,7.83
2018-03-27T09:52:14.971Z,7.77
2018-03-27T09:53:14.837Z,7.94
2018-03-27T09:55:18.648Z,8.03
2018-03-27T09:56:18.577Z,8.13
2018-03-27T09:58:22.424Z,8.19
2018-03-27T09:59:22.293Z,8.23
2018-03-27T10:01:26.100Z,8.15
2018-03-27T10:02:26.017Z,8.26
2018-03-27T10:04:29.889Z,8.30
2018-03-27T10:05:29.752Z,8.36
2018-03-27T10:07:22.504Z,8.44
2018-03-27T10:08:22.419Z,8.46
2018-03-27T10:10:26.294Z,8.42
2018-03-27T10:11:26.158Z,8.61
2018-03-27T10:12:26.098Z,8.58
2018-03-27T10:13:25.995Z,8.63
2018-03-27T10:14:25.927Z,8.76
2018-03-27T10:15:25.834Z,8.81
2018-03-27T10:16:25.755Z,8.78
2018-03-27T10:17:25.681Z,8.76
2018-03-27T10:18:25.597Z,8.88
2018-03-27T10:19:25.517Z,9.10
2018-03-27T10:20:25.463Z,8.99
2018-03-27T10:21:25.358Z,9.10
2018-03-27T10:22:25.285Z,9.13
2018-03-27T10:23:25.226Z,9.04
2018-03-27T10:24:25.134Z,9.08
2018-03-27T10:25:25.052Z,9.10
2018-03-27T10:26:24.976Z,9.13
2018-03-27T10:27:24.992Z,9.14
2018-03-27T10:28:24.802Z,9.21
2018-03-27T10:29:24.761Z,9.29
2018-03-27T10:30:24.700Z,9.36
2018-03-27T10:31:24.599Z,9.39
2018-03-27T10:32:24.669Z,9.46
2018-03-27T10:33:24.427Z,9.43
2018-03-27T10:34:24.344Z,9.61
2018-03-27T10:35:24.279Z,9.68
2018-03-27T10:36:24.177Z,9.65
2018-03-27T10:37:24.149Z,9.74
2018-03-27T10:38:24.025Z,9.69
2018-03-27T10:39:23.932Z,9.83
2018-03-27T10:40:23.875Z,9.94
2018-03-27T10:41:23.798Z,9.99
2018-03-27T10:42:23.720Z,9.95
2018-03-27T10:43:23.623Z,9.86
2018-03-27T10:44:23.538Z,9.73
2018-03-27T10:45:23.513Z,9.80
2018-03-27T10:46:23.381Z,9.76
2018-03-27T10:47:23.302Z,9.80
2018-03-27T10:48:23.223Z,9.76
2018-03-27T10:49:23.147Z,9.77
2018-03-27T10:50:23.071Z,9.84
2018-03-27T10:51:22.988Z,9.76
2018-03-27T10:52:22.908Z,9.79
2018-03-27T10:53:22.833Z,9.76
2018-03-27T10:54:22.755Z,9.73
2018-03-27T10:55:22.727Z,9.89
2018-03-27T10:56:22.600Z,9.89
2018-03-27T10:57:22.519Z,10.04
2018-03-27T10:58:22.442Z,10.05
2018-03-27T10:59:22.361Z,10.05
2018-03-27T11:00:22.282Z,10.16
2018-03-27T11:01:22.206Z,10.28
2018-03-27T11:02:22.125Z,10.22
2018-03-27T11:03:22.061Z,10.38
2018-03-27T11:04:21.971Z,10.31
2018-03-27T11:05:21.891Z,10.30
2018-03-27T11:06:21.827Z,10.42
2018-03-27T11:07:21.736Z,10.44
2018-03-27T11:08:21.657Z,10.53
2018-03-27T11:09:21.582Z,10.40
2018-03-27T11:10:21.501Z,10.54
2018-03-27T11:11:21.424Z,10.63
2018-03-27T11:12:21.343Z,10.69
2018-03-27T11:13:21.268Z,10.63
2018-03-27T11:14:21.189Z,10.78
2018-03-27T11:15:21.115Z,10.87
2018-03-27T11:16:21.032Z,10.86
2018-03-27T11:17:20.956Z,10.86
2018-03-27T11:18:20.880Z,10.79
2018-03-27T11:19:20.799Z,10.71
2018-03-27T11:20:20.721Z,10.67
2018-03-27T11:21:20.645Z,10.76
2018-03-27T11:22:20.566Z,10.86
2018-03-27T11:23:20.498Z,10.92
2018-03-27T11:24:20.410Z,10.99
2018-03-27T11:25:20.333Z,11.00
2018-03-27T11:26:20.256Z,11.05
2018-03-27T11:27:20.176Z,10.75
2018-03-27T11:28:20.100Z,10.74
2018-03-27T11:29:20.030Z,10.82
2018-03-27T11:30:19.945Z,11.00
2018-03-27T11:31:19.874Z,11.22
2018-03-27T11:32:19.788Z,11.44
2018-03-27T11:33:19.715Z,11.54
2018-03-27T11:34:19.636Z,11.59
2018-03-27T11:35:19.561Z,11.59
2018-03-27T11:36:19.483Z,11.81
2018-03-27T11:37:19.404Z,11.88
2018-03-27T11:38:19.348Z,11.87
2018-03-27T11:39:19.250Z,11.91
2018-03-27T11:40:19.174Z,12.12
2018-03-27T11:41:19.129Z,12.06
2018-03-27T11:42:19.036Z,12.31
2018-03-27T11:43:18.948Z,12.43
2018-03-27T11:44:18.866Z,12.39
2018-03-27T11:45:18.792Z,12.39
2018-03-27T11:46:18.718Z,12.55
2018-03-27T11:47:18.649Z,12.58
2018-03-27T11:48:18.619Z,12.73
2018-03-27T11:49:18.554Z,12.94
2018-03-27T11:50:18.416Z,13.33
2018-03-27T11:51:18.345Z,13.77
2018-03-27T11:52:18.270Z,14.43
2018-03-27T11:53:18.200Z,15.02
2018-03-27T11:54:18.124Z,15.09
2018-03-27T11:55:18.054Z,15.17
2018-03-27T11:56:17.981Z,16.12
2018-03-27T11:57:17.932Z,16.46
2018-03-27T11:58:17.841Z,17.44
2018-03-27T11:59:17.769Z,18.00
2018-03-27T12:00:17.698Z,18.58
2018-03-27T12:01:17.629Z,19.08
2018-03-27T12:02:17.562Z,19.55
2018-03-27T12:03:17.493Z,20.21
2018-03-27T12:04:17.426Z,20.78
2018-03-27T12:05:17.358Z,21.21
2018-03-27T12:06:17.299Z,21.75
2018-03-27T12:07:17.228Z,22.30
2018-03-27T12:08:17.161Z,22.28
2018-03-27T12:09:17.101Z,22.53
2018-03-27T12:10:17.030Z,22.66
2018-03-27T12:11:16.967Z,22.94
2018-03-27T12:12:16.905Z,23.55
2018-03-27T12:13:16.838Z,24.03
2018-03-27T12:14:16.778Z,22.69
2018-03-27T12:15:16.754Z,21.25
2018-03-27T12:16:16.650Z,20.26
2018-03-27T12:17:16.588Z,19.36
2018-03-27T12:18:16.522Z,18.81
2018-03-27T12:19:16.460Z,18.01
2018-03-27T12:20:16.395Z,16.84
2018-03-27T12:21:16.330Z,15.67
2018-03-27T12:22:16.263Z,15.09
2018-03-27T12:23:16.206Z,14.84
2018-03-27T12:24:16.134Z,14.48
2018-03-27T12:25:16.068Z,14.29
2018-03-27T12:26:16.006Z,14.04
2018-03-27T12:27:15.933Z,13.86
2018-03-27T12:28:15.867Z,13.90
2018-03-27T12:29:15.801Z,13.78
2018-03-27T12:30:15.730Z,13.56
2018-03-27T12:31:15.661Z,13.57
2018-03-27T12:32:15.590Z,13.53
2018-03-27T12:33:15.523Z,13.46
2018-03-27T12:34:15.451Z,13.35
2018-03-27T12:35:15.383Z,13.31
2018-03-27T12:36:15.313Z,13.11
2018-03-27T12:37:15.241Z,13.05
2018-03-27T12:38:15.168Z,12.80
2018-03-27T12:39:15.098Z,12.72
2018-03-27T12:40:15.024Z,12.65
2018-03-27T12:41:14.953Z,12.42
2018-03-27T12:42:14.885Z,12.29
2018-03-27T12:43:14.813Z,12.24
2018-03-27T12:44:14.736Z,12.03
2018-03-27T12:45:14.662Z,11.97
2018-03-27T12:46:14.589Z,11.77
2018-03-27T12:47:14.513Z,11.63
2018-03-27T12:48:14.445Z,11.45
2018-03-27T12:49:14.371Z,11.40
2018-03-27T12:50:14.293Z,11.35
2018-03-27T12:51:14.225Z,11.22
2018-03-27T12:52:14.142Z,11.27
2018-03-27T12:53:14.083Z,11.11
2018-03-27T12:54:13.991Z,11.02
2018-03-27T12:55:13.917Z,10.97
2018-03-27T12:56:13.840Z,10.84
2018-03-27T12:57:13.765Z,10.84
2018-03-27T12:58:13.693Z,10.86
2018-03-27T12:59:13.617Z,10.72
2018-03-27T13:00:13.540Z,10.87
2018-03-27T13:01:13.462Z,10.82
2018-03-27T13:02:13.385Z,10.79
2018-03-27T13:03:13.314Z,10.94
2018-03-27T13:04:13.236Z,10.84
2018-03-27T13:05:13.158Z,10.97
2018-03-27T13:06:13.081Z,11.55
2018-03-27T13:07:13.005Z,12.93
2018-03-27T13:08:12.931Z,14.05
2018-03-27T13:09:12.852Z,14.86
2018-03-27T13:10:12.777Z,15.73
2018-03-27T13:11:12.709Z,16.38
2018-03-27T13:12:12.626Z,16.61
2018-03-27T13:13:12.557Z,16.16
2018-03-27T13:14:12.496Z,15.49
2018-03-27T13:15:12.413Z,15.03
2018-03-27T13:16:12.345Z,15.82
2018-03-27T13:17:12.269Z,16.90
2018-03-27T13:18:12.197Z,17.85
2018-03-27T13:19:12.124Z,18.83
2018-03-27T13:20:12.053Z,19.52